sensor_id;sensor_type;location;lat;lon;timestamp;P1;durP1;ratioP1;P2;durP2;ratioP2
15833;SDS011;8017;50.812;4.934;2022-08-01T00:01:24;3.80;;;1.40;;
15833;SDS011;8017;50.812;4.934;2022-08-01T00:04:26;2.33;;;1.17;;
15833;SDS011;8017;50.812;4.934;2022-08-01T00:07:29;2.73;;;1.50;;
15833;SDS011;8017;50.812;4.934;2022-08-01T00:10:31;2.23;;;1.50;;
15833;SDS011;8017;50.812;4.934;2022-08-01T00:13:33;3.43;;;1.37;;
15833;SDS011;8017;50.812;4.934;2022-08-01T00:16:35;2.70;;;1.20;;
15833;SDS011;8017;50.812;4.934;2022-08-01T00:19:37;1.47;;;1.37;;
15833;SDS011;8017;50.812;4.934;2022-08-01T00:22:40;4.20;;;1.37;;
15833;SDS011;8017;50.812;4.934;2022-08-01T00:25:42;2.33;;;1.10;;
15833;SDS011;8017;50.812;4.934;2022-08-01T00:28:44;3.20;;;1.33;;
15833;SDS011;8017;50.812;4.934;2022-08-01T00:31:46;1.53;;;1.37;;
15833;SDS011;8017;50.812;4.934;2022-08-01T00:34:47;1.80;;;1.30;;
15833;SDS011;8017;50.812;4.934;2022-08-01T00:37:51;1.87;;;1.30;;
15833;SDS011;8017;50.812;4.934;2022-08-01T00:40:52;2.50;;;1.27;;
15833;SDS011;8017;50.812;4.934;2022-08-01T00:43:54;2.60;;;1.40;;
15833;SDS011;8017;50.812;4.934;2022-08-01T00:46:56;3.03;;;1.27;;
15833;SDS011;8017;50.812;4.934;2022-08-01T00:49:58;3.37;;;1.50;;
15833;SDS011;8017;50.812;4.934;2022-08-01T00:53:02;2.67;;;1.60;;
15833;SDS011;8017;50.812;4.934;2022-08-01T00:56:04;2.70;;;1.60;;
15833;SDS011;8017;50.812;4.934;2022-08-01T00:59:06;2.03;;;1.40;;
15833;SDS011;8017;50.812;4.934;2022-08-01T01:02:08;2.43;;;1.77;;
15833;SDS011;8017;50.812;4.934;2022-08-01T01:05:11;4.60;;;1.90;;
15833;SDS011;8017;50.812;4.934;2022-08-01T01:08:16;3.13;;;1.73;;
15833;SDS011;8017;50.812;4.934;2022-08-01T01:11:25;1.80;;;1.40;;
15833;SDS011;8017;50.812;4.934;2022-08-01T01:14:30;6.67;;;2.60;;
15833;SDS011;8017;50.812;4.934;2022-08-01T01:17:37;4.63;;;2.00;;
15833;SDS011;8017;50.812;4.934;2022-08-01T01:20:43;2.93;;;1.70;;
15833;SDS011;8017;50.812;4.934;2022-08-01T01:24:02;6.27;;;2.47;;
15833;SDS011;8017;50.812;4.934;2022-08-01T01:27:16;3.70;;;2.10;;
15833;SDS011;8017;50.812;4.934;2022-08-01T01:30:26;6.30;;;2.27;;
15833;SDS011;8017;50.812;4.934;2022-08-01T01:33:30;3.47;;;2.20;;
15833;SDS011;8017;50.812;4.934;2022-08-01T01:36:34;4.23;;;2.30;;
15833;SDS011;8017;50.812;4.934;2022-08-01T01:39:38;5.50;;;2.43;;
15833;SDS011;8017;50.812;4.934;2022-08-01T01:42:42;4.67;;;2.20;;
15833;SDS011;8017;50.812;4.934;2022-08-01T01:45:47;4.90;;;3.23;;
15833;SDS011;8017;50.812;4.934;2022-08-01T01:48:50;3.27;;;2.50;;
15833;SDS011;8017;50.812;4.934;2022-08-01T01:51:54;6.87;;;3.20;;
15833;SDS011;8017;50.812;4.934;2022-08-01T01:54:58;5.00;;;3.10;;
15833;SDS011;8017;50.812;4.934;2022-08-01T01:58:02;6.33;;;3.03;;
15833;SDS011;8017;50.812;4.934;2022-08-01T02:01:07;6.07;;;3.43;;
15833;SDS011;8017;50.812;4.934;2022-08-01T02:04:11;5.90;;;3.00;;
15833;SDS011;8017;50.812;4.934;2022-08-01T02:07:14;5.23;;;3.10;;
15833;SDS011;8017;50.812;4.934;2022-08-01T02:10:21;3.37;;;2.90;;
15833;SDS011;8017;50.812;4.934;2022-08-01T02:13:25;5.77;;;3.37;;
15833;SDS011;8017;50.812;4.934;2022-08-01T02:16:29;5.07;;;3.33;;
15833;SDS011;8017;50.812;4.934;2022-08-01T02:19:35;6.50;;;3.40;;
15833;SDS011;8017;50.812;4.934;2022-08-01T02:22:37;4.27;;;3.20;;
15833;SDS011;8017;50.812;4.934;2022-08-01T02:25:43;4.23;;;3.23;;
15833;SDS011;8017;50.812;4.934;2022-08-01T02:28:50;5.20;;;3.07;;
15833;SDS011;8017;50.812;4.934;2022-08-01T02:31:58;4.37;;;3.30;;
15833;SDS011;8017;50.812;4.934;2022-08-01T02:35:02;4.37;;;3.10;;
15833;SDS011;8017;50.812;4.934;2022-08-01T02:38:09;3.70;;;3.13;;
15833;SDS011;8017;50.812;4.934;2022-08-01T02:41:12;4.60;;;3.20;;
15833;SDS011;8017;50.812;4.934;2022-08-01T02:44:21;5.50;;;3.80;;
15833;SDS011;8017;50.812;4.934;2022-08-01T02:47:27;4.60;;;3.23;;
15833;SDS011;8017;50.812;4.934;2022-08-01T02:50:30;4.60;;;3.00;;
15833;SDS011;8017;50.812;4.934;2022-08-01T02:53:33;4.57;;;3.63;;
15833;SDS011;8017;50.812;4.934;2022-08-01T02:56:39;5.30;;;3.57;;
15833;SDS011;8017;50.812;4.934;2022-08-01T02:59:42;5.53;;;3.70;;
15833;SDS011;8017;50.812;4.934;2022-08-01T03:02:46;6.03;;;3.57;;
15833;SDS011;8017;50.812;4.934;2022-08-01T03:05:51;4.77;;;3.70;;
15833;SDS011;8017;50.812;4.934;2022-08-01T03:08:54;5.90;;;3.47;;
15833;SDS011;8017;50.812;4.934;2022-08-01T03:11:59;6.10;;;4.00;;
15833;SDS011;8017;50.812;4.934;2022-08-01T03:15:04;7.27;;;3.60;;
15833;SDS011;8017;50.812;4.934;2022-08-01T03:18:09;5.03;;;3.30;;
15833;SDS011;8017;50.812;4.934;2022-08-01T03:21:13;5.77;;;3.40;;
15833;SDS011;8017;50.812;4.934;2022-08-01T03:24:15;8.00;;;3.87;;
15833;SDS011;8017;50.812;4.934;2022-08-01T03:27:19;5.27;;;3.80;;
15833;SDS011;8017;50.812;4.934;2022-08-01T03:30:24;5.87;;;3.17;;
15833;SDS011;8017;50.812;4.934;2022-08-01T03:33:28;6.13;;;3.40;;
15833;SDS011;8017;50.812;4.934;2022-08-01T03:36:31;6.60;;;3.53;;
15833;SDS011;8017;50.812;4.934;2022-08-01T03:39:34;4.63;;;3.60;;
15833;SDS011;8017;50.812;4.934;2022-08-01T03:42:44;5.67;;;3.97;;
15833;SDS011;8017;50.812;4.934;2022-08-01T03:45:50;6.47;;;3.87;;
15833;SDS011;8017;50.812;4.934;2022-08-01T03:48:55;7.17;;;4.13;;
15833;SDS011;8017;50.812;4.934;2022-08-01T03:52:02;5.80;;;3.67;;
15833;SDS011;8017;50.812;4.934;2022-08-01T03:55:07;8.20;;;4.20;;
15833;SDS011;8017;50.812;4.934;2022-08-01T03:58:11;7.90;;;4.70;;
15833;SDS011;8017;50.812;4.934;2022-08-01T04:01:14;7.67;;;4.80;;
15833;SDS011;8017;50.812;4.934;2022-08-01T04:04:18;7.67;;;5.27;;
15833;SDS011;8017;50.812;4.934;2022-08-01T04:07:21;8.77;;;5.60;;
15833;SDS011;8017;50.812;4.934;2022-08-01T04:10:24;7.63;;;5.53;;
15833;SDS011;8017;50.812;4.934;2022-08-01T04:13:26;6.13;;;5.20;;
15833;SDS011;8017;50.812;4.934;2022-08-01T04:16:28;10.37;;;6.40;;
15833;SDS011;8017;50.812;4.934;2022-08-01T04:19:32;8.03;;;5.93;;
15833;SDS011;8017;50.812;4.934;2022-08-01T04:22:34;9.00;;;6.97;;
15833;SDS011;8017;50.812;4.934;2022-08-01T04:25:36;8.83;;;6.83;;
15833;SDS011;8017;50.812;4.934;2022-08-01T04:28:39;10.27;;;7.17;;
15833;SDS011;8017;50.812;4.934;2022-08-01T04:31:43;12.97;;;8.23;;
15833;SDS011;8017;50.812;4.934;2022-08-01T04:34:49;12.80;;;7.90;;
15833;SDS011;8017;50.812;4.934;2022-08-01T04:37:52;13.37;;;8.17;;
15833;SDS011;8017;50.812;4.934;2022-08-01T04:40:55;14.77;;;9.33;;
15833;SDS011;8017;50.812;4.934;2022-08-01T04:43:58;12.37;;;8.83;;
15833;SDS011;8017;50.812;4.934;2022-08-01T04:47:03;13.60;;;9.80;;
15833;SDS011;8017;50.812;4.934;2022-08-01T04:50:09;23.37;;;15.57;;
15833;SDS011;8017;50.812;4.934;2022-08-01T04:53:13;20.90;;;15.50;;
15833;SDS011;8017;50.812;4.934;2022-08-01T04:56:16;24.47;;;17.97;;
15833;SDS011;8017;50.812;4.934;2022-08-01T04:59:18;32.23;;;19.73;;
15833;SDS011;8017;50.812;4.934;2022-08-01T05:02:38;20.87;;;14.57;;
15833;SDS011;8017;50.812;4.934;2022-08-01T05:05:41;21.13;;;13.73;;
15833;SDS011;8017;50.812;4.934;2022-08-01T05:08:43;19.63;;;14.33;;
15833;SDS011;8017;50.812;4.934;2022-08-01T05:11:45;21.83;;;14.70;;
15833;SDS011;8017;50.812;4.934;2022-08-01T05:14:47;20.47;;;15.47;;
15833;SDS011;8017;50.812;4.934;2022-08-01T05:17:49;23.73;;;17.60;;
15833;SDS011;8017;50.812;4.934;2022-08-01T05:20:52;23.33;;;16.87;;
15833;SDS011;8017;50.812;4.934;2022-08-01T05:23:54;24.40;;;17.93;;
15833;SDS011;8017;50.812;4.934;2022-08-01T05:26:57;24.07;;;18.60;;
15833;SDS011;8017;50.812;4.934;2022-08-01T05:30:00;27.13;;;17.87;;
15833;SDS011;8017;50.812;4.934;2022-08-01T05:33:02;24.30;;;17.87;;
15833;SDS011;8017;50.812;4.934;2022-08-01T05:36:05;22.40;;;17.63;;
15833;SDS011;8017;50.812;4.934;2022-08-01T05:39:07;23.83;;;17.70;;
15833;SDS011;8017;50.812;4.934;2022-08-01T05:42:09;22.03;;;16.97;;
15833;SDS011;8017;50.812;4.934;2022-08-01T05:45:11;20.60;;;15.43;;
15833;SDS011;8017;50.812;4.934;2022-08-01T05:48:13;20.27;;;15.90;;
15833;SDS011;8017;50.812;4.934;2022-08-01T05:51:16;20.87;;;16.77;;
15833;SDS011;8017;50.812;4.934;2022-08-01T05:54:18;20.00;;;15.90;;
15833;SDS011;8017;50.812;4.934;2022-08-01T05:57:20;19.33;;;15.93;;
15833;SDS011;8017;50.812;4.934;2022-08-01T06:00:22;22.37;;;16.23;;
15833;SDS011;8017;50.812;4.934;2022-08-01T06:03:24;21.63;;;16.67;;
15833;SDS011;8017;50.812;4.934;2022-08-01T06:06:27;21.53;;;15.70;;
15833;SDS011;8017;50.812;4.934;2022-08-01T06:09:29;17.90;;;15.50;;
15833;SDS011;8017;50.812;4.934;2022-08-01T06:12:32;19.83;;;15.67;;
15833;SDS011;8017;50.812;4.934;2022-08-01T06:15:34;16.90;;;14.07;;
15833;SDS011;8017;50.812;4.934;2022-08-01T06:18:36;19.90;;;15.80;;
15833;SDS011;8017;50.812;4.934;2022-08-01T06:21:39;19.73;;;14.70;;
15833;SDS011;8017;50.812;4.934;2022-08-01T06:24:41;18.23;;;15.03;;
15833;SDS011;8017;50.812;4.934;2022-08-01T06:27:43;20.60;;;17.47;;
15833;SDS011;8017;50.812;4.934;2022-08-01T06:30:45;17.43;;;15.47;;
15833;SDS011;8017;50.812;4.934;2022-08-01T06:33:47;17.60;;;15.30;;
15833;SDS011;8017;50.812;4.934;2022-08-01T06:36:50;16.93;;;14.47;;
15833;SDS011;8017;50.812;4.934;2022-08-01T06:39:52;18.80;;;15.47;;
15833;SDS011;8017;50.812;4.934;2022-08-01T06:42:54;19.17;;;15.10;;
15833;SDS011;8017;50.812;4.934;2022-08-01T06:45:56;20.23;;;14.63;;
15833;SDS011;8017;50.812;4.934;2022-08-01T06:48:58;17.93;;;15.23;;
15833;SDS011;8017;50.812;4.934;2022-08-01T06:52:01;19.27;;;14.90;;
15833;SDS011;8017;50.812;4.934;2022-08-01T06:55:04;17.17;;;14.67;;
15833;SDS011;8017;50.812;4.934;2022-08-01T06:58:06;13.27;;;11.87;;
15833;SDS011;8017;50.812;4.934;2022-08-01T07:01:08;13.97;;;12.10;;
15833;SDS011;8017;50.812;4.934;2022-08-01T07:04:10;15.90;;;13.10;;
15833;SDS011;8017;50.812;4.934;2022-08-01T07:07:13;14.80;;;12.97;;
15833;SDS011;8017;50.812;4.934;2022-08-01T07:10:15;16.10;;;12.23;;
15833;SDS011;8017;50.812;4.934;2022-08-01T07:13:18;15.07;;;12.00;;
15833;SDS011;8017;50.812;4.934;2022-08-01T07:16:24;12.90;;;11.50;;
15833;SDS011;8017;50.812;4.934;2022-08-01T07:19:26;12.00;;;10.70;;
15833;SDS011;8017;50.812;4.934;2022-08-01T07:22:30;10.97;;;9.50;;
15833;SDS011;8017;50.812;4.934;2022-08-01T07:25:32;10.83;;;9.77;;
15833;SDS011;8017;50.812;4.934;2022-08-01T07:28:33;9.93;;;9.03;;
15833;SDS011;8017;50.812;4.934;2022-08-01T07:31:35;10.97;;;9.57;;
15833;SDS011;8017;50.812;4.934;2022-08-01T07:34:37;10.43;;;8.60;;
15833;SDS011;8017;50.812;4.934;2022-08-01T07:37:40;9.73;;;8.40;;
15833;SDS011;8017;50.812;4.934;2022-08-01T07:40:42;11.00;;;6.93;;
15833;SDS011;8017;50.812;4.934;2022-08-01T07:43:44;10.67;;;7.53;;
15833;SDS011;8017;50.812;4.934;2022-08-01T07:46:47;9.77;;;7.37;;
15833;SDS011;8017;50.812;4.934;2022-08-01T07:49:49;8.60;;;7.57;;
15833;SDS011;8017;50.812;4.934;2022-08-01T07:52:52;8.43;;;7.53;;
15833;SDS011;8017;50.812;4.934;2022-08-01T07:55:54;10.63;;;7.30;;
15833;SDS011;8017;50.812;4.934;2022-08-01T07:58:56;8.33;;;5.53;;
15833;SDS011;8017;50.812;4.934;2022-08-01T08:01:58;6.90;;;5.73;;
15833;SDS011;8017;50.812;4.934;2022-08-01T08:05:00;5.83;;;5.20;;
15833;SDS011;8017;50.812;4.934;2022-08-01T08:08:05;6.40;;;5.10;;
15833;SDS011;8017;50.812;4.934;2022-08-01T08:11:08;6.07;;;5.03;;
15833;SDS011;8017;50.812;4.934;2022-08-01T08:14:10;5.87;;;4.73;;
15833;SDS011;8017;50.812;4.934;2022-08-01T08:17:12;6.63;;;4.93;;
15833;SDS011;8017;50.812;4.934;2022-08-01T08:20:14;5.37;;;4.87;;
15833;SDS011;8017;50.812;4.934;2022-08-01T08:23:18;5.70;;;5.03;;
15833;SDS011;8017;50.812;4.934;2022-08-01T08:26:37;7.50;;;5.13;;
15833;SDS011;8017;50.812;4.934;2022-08-01T08:29:38;6.83;;;5.43;;
15833;SDS011;8017;50.812;4.934;2022-08-01T08:32:40;5.90;;;5.40;;
15833;SDS011;8017;50.812;4.934;2022-08-01T08:35:42;6.40;;;5.73;;
15833;SDS011;8017;50.812;4.934;2022-08-01T08:38:46;5.53;;;4.93;;
15833;SDS011;8017;50.812;4.934;2022-08-01T08:41:47;5.13;;;4.63;;
15833;SDS011;8017;50.812;4.934;2022-08-01T08:44:49;5.73;;;5.23;;
15833;SDS011;8017;50.812;4.934;2022-08-01T08:47:54;7.93;;;5.63;;
15833;SDS011;8017;50.812;4.934;2022-08-01T08:50:57;6.10;;;5.50;;
15833;SDS011;8017;50.812;4.934;2022-08-01T08:54:01;5.50;;;4.87;;
15833;SDS011;8017;50.812;4.934;2022-08-01T08:57:05;6.00;;;4.53;;
15833;SDS011;8017;50.812;4.934;2022-08-01T09:00:07;4.80;;;3.67;;
15833;SDS011;8017;50.812;4.934;2022-08-01T09:03:11;4.60;;;4.10;;
15833;SDS011;8017;50.812;4.934;2022-08-01T09:06:13;5.07;;;3.90;;
15833;SDS011;8017;50.812;4.934;2022-08-01T09:09:16;6.10;;;4.20;;
15833;SDS011;8017;50.812;4.934;2022-08-01T09:12:19;5.30;;;4.57;;
15833;SDS011;8017;50.812;4.934;2022-08-01T09:15:21;5.37;;;3.97;;
15833;SDS011;8017;50.812;4.934;2022-08-01T09:18:39;4.83;;;4.30;;
15833;SDS011;8017;50.812;4.934;2022-08-01T09:21:55;4.40;;;3.80;;
15833;SDS011;8017;50.812;4.934;2022-08-01T09:25:00;5.40;;;4.30;;
15833;SDS011;8017;50.812;4.934;2022-08-01T09:28:05;4.30;;;3.70;;
15833;SDS011;8017;50.812;4.934;2022-08-01T09:31:08;3.67;;;3.30;;
15833;SDS011;8017;50.812;4.934;2022-08-01T09:34:11;4.13;;;3.20;;
15833;SDS011;8017;50.812;4.934;2022-08-01T09:37:13;4.00;;;2.97;;
15833;SDS011;8017;50.812;4.934;2022-08-01T09:40:19;3.30;;;2.70;;
15833;SDS011;8017;50.812;4.934;2022-08-01T09:43:21;3.07;;;2.10;;
15833;SDS011;8017;50.812;4.934;2022-08-01T09:46:24;2.30;;;2.10;;
15833;SDS011;8017;50.812;4.934;2022-08-01T09:49:28;3.03;;;2.20;;
15833;SDS011;8017;50.812;4.934;2022-08-01T09:52:31;4.30;;;1.90;;
15833;SDS011;8017;50.812;4.934;2022-08-01T09:55:34;2.23;;;1.90;;
15833;SDS011;8017;50.812;4.934;2022-08-01T09:58:50;3.63;;;2.27;;
15833;SDS011;8017;50.812;4.934;2022-08-01T10:01:52;2.10;;;1.70;;
15833;SDS011;8017;50.812;4.934;2022-08-01T10:04:55;1.83;;;1.50;;
15833;SDS011;8017;50.812;4.934;2022-08-01T10:07:57;2.57;;;1.70;;
15833;SDS011;8017;50.812;4.934;2022-08-01T10:11:06;3.07;;;1.97;;
15833;SDS011;8017;50.812;4.934;2022-08-01T10:14:09;2.87;;;2.10;;
15833;SDS011;8017;50.812;4.934;2022-08-01T10:17:14;3.63;;;2.07;;
15833;SDS011;8017;50.812;4.934;2022-08-01T10:20:17;2.40;;;2.23;;
15833;SDS011;8017;50.812;4.934;2022-08-01T10:23:21;3.13;;;2.00;;
15833;SDS011;8017;50.812;4.934;2022-08-01T10:26:26;2.57;;;2.37;;
15833;SDS011;8017;50.812;4.934;2022-08-01T10:29:31;2.60;;;2.40;;
15833;SDS011;8017;50.812;4.934;2022-08-01T10:32:38;2.40;;;2.20;;
15833;SDS011;8017;50.812;4.934;2022-08-01T10:35:42;2.97;;;2.27;;
15833;SDS011;8017;50.812;4.934;2022-08-01T10:38:47;2.13;;;1.80;;
15833;SDS011;8017;50.812;4.934;2022-08-01T10:41:50;2.87;;;2.10;;
15833;SDS011;8017;50.812;4.934;2022-08-01T10:44:53;2.13;;;1.50;;
15833;SDS011;8017;50.812;4.934;2022-08-01T10:47:56;2.23;;;1.97;;
15833;SDS011;8017;50.812;4.934;2022-08-01T10:51:04;2.67;;;2.27;;
15833;SDS011;8017;50.812;4.934;2022-08-01T10:54:08;2.37;;;2.10;;
15833;SDS011;8017;50.812;4.934;2022-08-01T10:57:13;3.07;;;2.10;;
15833;SDS011;8017;50.812;4.934;2022-08-01T11:00:18;2.47;;;2.27;;
15833;SDS011;8017;50.812;4.934;2022-08-01T11:03:26;3.87;;;2.10;;
15833;SDS011;8017;50.812;4.934;2022-08-01T11:06:42;1.80;;;1.57;;
15833;SDS011;8017;50.812;4.934;2022-08-01T11:09:59;2.37;;;2.00;;
15833;SDS011;8017;50.812;4.934;2022-08-01T11:13:06;3.70;;;2.03;;
15833;SDS011;8017;50.812;4.934;2022-08-01T11:19:33;3.63;;;1.97;;
15833;SDS011;8017;50.812;4.934;2022-08-01T11:26:27;1.90;;;1.77;;
15833;SDS011;8017;50.812;4.934;2022-08-01T11:29:30;4.60;;;2.10;;
15833;SDS011;8017;50.812;4.934;2022-08-01T11:32:32;3.17;;;1.70;;
15833;SDS011;8017;50.812;4.934;2022-08-01T11:35:34;2.00;;;1.70;;
15833;SDS011;8017;50.812;4.934;2022-08-01T11:38:38;1.90;;;1.70;;
15833;SDS011;8017;50.812;4.934;2022-08-01T11:41:41;2.40;;;1.70;;
15833;SDS011;8017;50.812;4.934;2022-08-01T11:44:49;1.80;;;1.50;;
15833;SDS011;8017;50.812;4.934;2022-08-01T11:47:51;2.87;;;1.50;;
15833;SDS011;8017;50.812;4.934;2022-08-01T11:50:53;1.47;;;1.37;;
15833;SDS011;8017;50.812;4.934;2022-08-01T11:53:56;2.27;;;1.33;;
15833;SDS011;8017;50.812;4.934;2022-08-01T11:56:59;1.30;;;1.20;;
15833;SDS011;8017;50.812;4.934;2022-08-01T12:00:06;2.10;;;1.67;;
15833;SDS011;8017;50.812;4.934;2022-08-01T12:03:12;2.53;;;1.30;;
15833;SDS011;8017;50.812;4.934;2022-08-01T12:06:14;1.63;;;1.50;;
15833;SDS011;8017;50.812;4.934;2022-08-01T12:09:28;2.27;;;1.37;;
15833;SDS011;8017;50.812;4.934;2022-08-01T12:12:32;2.03;;;1.58;;
15833;SDS011;8017;50.812;4.934;2022-08-01T12:15:37;2.33;;;1.30;;
15833;SDS011;8017;50.812;4.934;2022-08-01T12:18:39;2.77;;;1.17;;
15833;SDS011;8017;50.812;4.934;2022-08-01T12:21:42;1.70;;;1.60;;
15833;SDS011;8017;50.812;4.934;2022-08-01T12:24:44;2.37;;;1.37;;
15833;SDS011;8017;50.812;4.934;2022-08-01T12:27:47;2.17;;;1.63;;
15833;SDS011;8017;50.812;4.934;2022-08-01T12:30:51;3.78;;;1.50;;
15833;SDS011;8017;50.812;4.934;2022-08-01T12:33:53;3.78;;;1.40;;
15833;SDS011;8017;50.812;4.934;2022-08-01T12:36:55;1.88;;;1.50;;
15833;SDS011;8017;50.812;4.934;2022-08-01T12:39:59;3.33;;;1.45;;
15833;SDS011;8017;50.812;4.934;2022-08-01T12:43:02;1.23;;;1.10;;
15833;SDS011;8017;50.812;4.934;2022-08-01T12:46:06;1.17;;;1.08;;
15833;SDS011;8017;50.812;4.934;2022-08-01T12:49:16;1.52;;;1.20;;
15833;SDS011;8017;50.812;4.934;2022-08-01T12:52:18;2.10;;;1.40;;
15833;SDS011;8017;50.812;4.934;2022-08-01T12:55:22;1.67;;;1.00;;
15833;SDS011;8017;50.812;4.934;2022-08-01T12:58:30;2.20;;;1.20;;
15833;SDS011;8017;50.812;4.934;2022-08-01T13:01:34;2.97;;;1.40;;
15833;SDS011;8017;50.812;4.934;2022-08-01T13:04:48;2.07;;;1.10;;
15833;SDS011;8017;50.812;4.934;2022-08-01T13:07:51;2.07;;;1.10;;
15833;SDS011;8017;50.812;4.934;2022-08-01T13:10:59;2.43;;;1.33;;
15833;SDS011;8017;50.812;4.934;2022-08-01T13:14:02;1.73;;;1.10;;
15833;SDS011;8017;50.812;4.934;2022-08-01T13:17:05;1.47;;;1.27;;
15833;SDS011;8017;50.812;4.934;2022-08-01T13:20:08;2.00;;;1.20;;
15833;SDS011;8017;50.812;4.934;2022-08-01T13:23:14;1.50;;;1.07;;
15833;SDS011;8017;50.812;4.934;2022-08-01T13:26:17;1.63;;;1.13;;
15833;SDS011;8017;50.812;4.934;2022-08-01T13:29:20;3.13;;;1.00;;
15833;SDS011;8017;50.812;4.934;2022-08-01T13:32:31;1.20;;;1.00;;
15833;SDS011;8017;50.812;4.934;2022-08-01T13:35:32;2.50;;;1.20;;
15833;SDS011;8017;50.812;4.934;2022-08-01T13:38:34;2.77;;;1.00;;
15833;SDS011;8017;50.812;4.934;2022-08-01T13:42:02;2.90;;;1.00;;
15833;SDS011;8017;50.812;4.934;2022-08-01T13:45:05;2.67;;;0.80;;
15833;SDS011;8017;50.812;4.934;2022-08-01T13:48:11;2.73;;;1.10;;
15833;SDS011;8017;50.812;4.934;2022-08-01T13:51:13;3.07;;;1.23;;
15833;SDS011;8017;50.812;4.934;2022-08-01T13:54:15;3.37;;;1.43;;
15833;SDS011;8017;50.812;4.934;2022-08-01T13:57:17;1.57;;;0.93;;
15833;SDS011;8017;50.812;4.934;2022-08-01T14:00:19;1.30;;;1.10;;
15833;SDS011;8017;50.812;4.934;2022-08-01T14:03:23;3.50;;;1.07;;
15833;SDS011;8017;50.812;4.934;2022-08-01T14:06:24;2.10;;;1.10;;
15833;SDS011;8017;50.812;4.934;2022-08-01T14:09:26;2.67;;;1.17;;
15833;SDS011;8017;50.812;4.934;2022-08-01T14:12:28;2.10;;;1.00;;
15833;SDS011;8017;50.812;4.934;2022-08-01T14:15:30;1.53;;;1.20;;
15833;SDS011;8017;50.812;4.934;2022-08-01T14:18:34;2.53;;;1.23;;
15833;SDS011;8017;50.812;4.934;2022-08-01T14:21:36;2.13;;;1.03;;
15833;SDS011;8017;50.812;4.934;2022-08-01T14:24:38;3.07;;;1.17;;
15833;SDS011;8017;50.812;4.934;2022-08-01T14:27:40;2.03;;;1.10;;
15833;SDS011;8017;50.812;4.934;2022-08-01T14:30:42;4.20;;;1.30;;
15833;SDS011;8017;50.812;4.934;2022-08-01T14:33:45;3.83;;;1.30;;
15833;SDS011;8017;50.812;4.934;2022-08-01T14:36:47;2.23;;;1.00;;
15833;SDS011;8017;50.812;4.934;2022-08-01T14:39:49;2.17;;;1.30;;
15833;SDS011;8017;50.812;4.934;2022-08-01T14:42:51;2.00;;;1.00;;
15833;SDS011;8017;50.812;4.934;2022-08-01T14:45:53;1.97;;;0.87;;
15833;SDS011;8017;50.812;4.934;2022-08-01T14:48:56;1.23;;;0.93;;
15833;SDS011;8017;50.812;4.934;2022-08-01T14:51:58;1.60;;;1.00;;
15833;SDS011;8017;50.812;4.934;2022-08-01T14:55:00;3.70;;;1.10;;
15833;SDS011;8017;50.812;4.934;2022-08-01T14:58:02;2.57;;;0.73;;
15833;SDS011;8017;50.812;4.934;2022-08-01T15:01:04;1.63;;;1.00;;
15833;SDS011;8017;50.812;4.934;2022-08-01T15:04:07;3.17;;;0.90;;
15833;SDS011;8017;50.812;4.934;2022-08-01T15:07:09;3.97;;;0.80;;
15833;SDS011;8017;50.812;4.934;2022-08-01T15:10:11;2.60;;;1.20;;
15833;SDS011;8017;50.812;4.934;2022-08-01T15:13:15;2.17;;;0.90;;
15833;SDS011;8017;50.812;4.934;2022-08-01T15:16:17;1.43;;;0.80;;
15833;SDS011;8017;50.812;4.934;2022-08-01T15:19:20;1.30;;;0.80;;
15833;SDS011;8017;50.812;4.934;2022-08-01T15:22:22;1.77;;;1.00;;
15833;SDS011;8017;50.812;4.934;2022-08-01T15:25:25;2.53;;;1.03;;
15833;SDS011;8017;50.812;4.934;2022-08-01T15:28:27;3.17;;;1.10;;
15833;SDS011;8017;50.812;4.934;2022-08-01T15:31:29;3.60;;;1.17;;
15833;SDS011;8017;50.812;4.934;2022-08-01T15:34:32;2.90;;;1.07;;
15833;SDS011;8017;50.812;4.934;2022-08-01T15:37:34;3.70;;;1.10;;
15833;SDS011;8017;50.812;4.934;2022-08-01T15:40:36;2.05;;;1.00;;
15833;SDS011;8017;50.812;4.934;2022-08-01T15:43:38;2.70;;;1.13;;
15833;SDS011;8017;50.812;4.934;2022-08-01T15:46:40;1.45;;;0.90;;
15833;SDS011;8017;50.812;4.934;2022-08-01T15:49:43;2.72;;;0.60;;
15833;SDS011;8017;50.812;4.934;2022-08-01T15:52:45;1.98;;;1.10;;
15833;SDS011;8017;50.812;4.934;2022-08-01T15:55:47;2.75;;;0.95;;
15833;SDS011;8017;50.812;4.934;2022-08-01T15:58:51;1.35;;;0.55;;
15833;SDS011;8017;50.812;4.934;2022-08-01T16:01:53;3.05;;;0.93;;
15833;SDS011;8017;50.812;4.934;2022-08-01T16:04:56;3.38;;;1.00;;
15833;SDS011;8017;50.812;4.934;2022-08-01T16:07:58;4.30;;;0.95;;
15833;SDS011;8017;50.812;4.934;2022-08-01T16:11:00;0.77;;;0.70;;
15833;SDS011;8017;50.812;4.934;2022-08-01T16:14:02;2.25;;;0.80;;
15833;SDS011;8017;50.812;4.934;2022-08-01T16:17:04;1.92;;;0.85;;
15833;SDS011;8017;50.812;4.934;2022-08-01T16:20:08;1.20;;;0.80;;
15833;SDS011;8017;50.812;4.934;2022-08-01T16:23:10;2.03;;;0.90;;
15833;SDS011;8017;50.812;4.934;2022-08-01T16:26:12;0.73;;;0.70;;
15833;SDS011;8017;50.812;4.934;2022-08-01T16:29:14;1.48;;;0.80;;
15833;SDS011;8017;50.812;4.934;2022-08-01T16:32:17;1.05;;;0.77;;
15833;SDS011;8017;50.812;4.934;2022-08-01T16:35:20;1.48;;;0.80;;
15833;SDS011;8017;50.812;4.934;2022-08-01T16:38:22;2.83;;;1.00;;
15833;SDS011;8017;50.812;4.934;2022-08-01T16:41:24;1.95;;;1.00;;
15833;SDS011;8017;50.812;4.934;2022-08-01T16:44:26;3.13;;;0.77;;
15833;SDS011;8017;50.812;4.934;2022-08-01T16:47:28;2.85;;;1.00;;
15833;SDS011;8017;50.812;4.934;2022-08-01T16:50:31;1.63;;;0.70;;
15833;SDS011;8017;50.812;4.934;2022-08-01T16:53:33;1.95;;;0.80;;
15833;SDS011;8017;50.812;4.934;2022-08-01T16:56:35;2.03;;;0.98;;
15833;SDS011;8017;50.812;4.934;2022-08-01T16:59:37;2.13;;;0.90;;
15833;SDS011;8017;50.812;4.934;2022-08-01T17:02:39;1.00;;;0.65;;
15833;SDS011;8017;50.812;4.934;2022-08-01T17:05:43;1.35;;;0.80;;
15833;SDS011;8017;50.812;4.934;2022-08-01T17:08:45;2.63;;;0.93;;
15833;SDS011;8017;50.812;4.934;2022-08-01T17:11:47;2.42;;;0.68;;
15833;SDS011;8017;50.812;4.934;2022-08-01T17:14:49;5.93;;;0.90;;
15833;SDS011;8017;50.812;4.934;2022-08-01T17:17:51;2.50;;;0.85;;
15833;SDS011;8017;50.812;4.934;2022-08-01T17:20:54;1.95;;;0.65;;
15833;SDS011;8017;50.812;4.934;2022-08-01T17:23:56;2.28;;;0.70;;
15833;SDS011;8017;50.812;4.934;2022-08-01T17:26:58;1.52;;;0.77;;
15833;SDS011;8017;50.812;4.934;2022-08-01T17:30:00;1.95;;;0.85;;
15833;SDS011;8017;50.812;4.934;2022-08-01T17:33:02;2.08;;;1.05;;
15833;SDS011;8017;50.812;4.934;2022-08-01T17:36:06;4.38;;;0.80;;
15833;SDS011;8017;50.812;4.934;2022-08-01T17:39:08;7.15;;;1.00;;
15833;SDS011;8017;50.812;4.934;2022-08-01T17:42:11;2.20;;;0.90;;
15833;SDS011;8017;50.812;4.934;2022-08-01T17:45:13;2.50;;;0.98;;
15833;SDS011;8017;50.812;4.934;2022-08-01T17:48:15;1.38;;;0.80;;
15833;SDS011;8017;50.812;4.934;2022-08-01T17:51:18;4.45;;;1.10;;
15833;SDS011;8017;50.812;4.934;2022-08-01T17:54:20;1.48;;;0.95;;
15833;SDS011;8017;50.812;4.934;2022-08-01T17:57:22;2.90;;;1.08;;
15833;SDS011;8017;50.812;4.934;2022-08-01T18:00:24;1.80;;;0.82;;
15833;SDS011;8017;50.812;4.934;2022-08-01T18:03:26;2.28;;;1.20;;
15833;SDS011;8017;50.812;4.934;2022-08-01T18:06:29;1.65;;;1.00;;
15833;SDS011;8017;50.812;4.934;2022-08-01T18:09:31;2.60;;;1.10;;
15833;SDS011;8017;50.812;4.934;2022-08-01T18:12:33;1.98;;;1.00;;
15833;SDS011;8017;50.812;4.934;2022-08-01T18:15:35;2.25;;;1.40;;
15833;SDS011;8017;50.812;4.934;2022-08-01T18:18:37;3.13;;;1.13;;
15833;SDS011;8017;50.812;4.934;2022-08-01T18:21:41;2.50;;;1.10;;
15833;SDS011;8017;50.812;4.934;2022-08-01T18:24:43;1.60;;;0.93;;
15833;SDS011;8017;50.812;4.934;2022-08-01T18:27:45;6.57;;;1.27;;
15833;SDS011;8017;50.812;4.934;2022-08-01T18:30:47;4.67;;;1.43;;
15833;SDS011;8017;50.812;4.934;2022-08-01T18:33:49;2.30;;;1.20;;
15833;SDS011;8017;50.812;4.934;2022-08-01T18:36:52;1.83;;;1.00;;
15833;SDS011;8017;50.812;4.934;2022-08-01T18:39:55;2.10;;;1.07;;
15833;SDS011;8017;50.812;4.934;2022-08-01T18:42:57;3.73;;;1.33;;
15833;SDS011;8017;50.812;4.934;2022-08-01T18:45:59;3.20;;;1.07;;